Time;durP1;ratioP1;P1;durP2;ratioP2;P2;SDS_P1;SDS_P2;PMS_P1;PMS_P2;Temp;Humidity;BMP_temperature;BMP_pressure;BME280_temperature;BME280_humidity;BME280_pressure;Samples;Min_cycle;Max_cycle;Signal;HPM_P1;HPM_P2
2021/04/05 00:00:06;;;;;;;6.68;2.25;;;7.70;75.70;;;;;;4972842;28;20038;-69
2021/04/05 00:02:32;;;;;;;5.40;2.05;;;7.60;76.10;;;;;;4972837;28;20030;-70
2021/04/05 00:04:58;;;;;;;2.92;1.50;;;7.70;76.00;;;;;;4972845;28;20105;-69
2021/04/05 00:07:23;;;;;;;3.95;1.92;;;7.50;76.00;;;;;;4965522;28;20433;-70
2021/04/05 00:09:49;;;;;;;5.55;2.15;;;7.30;76.50;;;;;;4973436;28;20130;-70
2021/04/05 00:12:15;;;;;;;4.13;2.13;;;7.30;77.00;;;;;;4972646;28;20043;-70
2021/04/05 00:14:42;;;;;;;6.90;2.58;;;7.20;77.30;;;;;;4973579;28;20031;-70
2021/04/05 00:17:08;;;;;;;5.03;2.25;;;7.20;77.30;;;;;;4972815;28;20118;-70
2021/04/05 00:19:37;;;;;;;5.53;1.80;;;7.20;77.60;;;;;;4973201;28;20450;-69
2021/04/05 00:22:02;;;;;;;6.22;2.05;;;7.30;77.20;;;;;;4972118;28;20035;-70
2021/04/05 00:24:28;;;;;;;6.45;2.13;;;6.90;78.00;;;;;;4973071;28;20042;-69
2021/04/05 00:26:54;;;;;;;5.32;1.85;;;6.70;79.00;;;;;;4972572;28;20113;-70
2021/04/05 00:29:19;;;;;;;6.30;2.45;;;6.80;78.90;;;;;;4973835;28;20034;-70
2021/04/05 00:31:45;;;;;;;6.13;2.72;;;6.70;79.20;;;;;;4973091;28;20041;-70
2021/04/05 00:34:11;;;;;;;6.00;2.30;;;6.80;79.20;;;;;;4972312;28;20093;-70
2021/04/05 00:36:37;;;;;;;4.72;2.20;;;6.70;79.20;;;;;;4972014;28;20441;-70
2021/04/05 00:39:05;;;;;;;7.22;2.28;;;6.70;79.50;;;;;;4972383;28;20696;-70
2021/04/05 00:41:31;;;;;;;4.85;1.98;;;6.60;79.50;;;;;;4972473;28;20070;-69
2021/04/05 00:43:57;;;;;;;4.65;2.60;;;6.60;79.70;;;;;;4972528;28;20456;-70
2021/04/05 00:46:25;;;;;;;7.50;2.45;;;6.60;79.80;;;;;;4972806;28;20381;-70
2021/04/05 00:48:51;;;;;;;5.32;2.30;;;6.50;80.00;;;;;;4972596;28;20039;-72
2021/04/05 00:51:22;;;;;;;6.97;3.15;;;6.40;80.40;;;;;;4969363;28;20033;-70
2021/04/05 00:53:49;;;;;;;9.95;3.58;;;6.30;80.80;;;;;;4971707;28;20400;-73
2021/04/05 00:56:19;;;;;;;9.38;2.63;;;6.40;80.80;;;;;;4972618;28;20039;-69
2021/04/05 00:58:45;;;;;;;4.70;2.33;;;6.40;81.00;;;;;;4972247;28;20035;-70
2021/04/05 01:01:18;;;;;;;5.63;2.58;;;6.30;81.10;;;;;;4971918;28;20039;-69
2021/04/05 01:03:45;;;;;;;5.95;1.80;;;6.30;81.10;;;;;;4972432;28;20042;-70
2021/04/05 01:06:24;;;;;;;4.25;2.33;;;6.30;81.70;;;;;;4971166;28;20045;-70
2021/04/05 01:08:50;;;;;;;4.63;2.42;;;6.20;81.60;;;;;;4969448;28;20610;-70
2021/04/05 01:11:19;;;;;;;3.78;1.90;;;6.20;81.80;;;;;;4971451;28;20027;-70
2021/04/05 01:13:46;;;;;;;6.32;2.47;;;6.20;81.90;;;;;;4971910;28;20031;-70
2021/04/05 01:16:12;;;;;;;4.40;2.33;;;6.10;82.00;;;;;;4970598;28;20031;-70
2021/04/05 01:18:39;;;;;;;4.68;1.95;;;6.10;82.40;;;;;;4971932;28;20023;-69
2021/04/05 01:21:06;;;;;;;5.78;2.08;;;5.90;83.00;;;;;;4971370;28;20033;-68
2021/04/05 01:23:32;;;;;;;4.18;2.15;;;6.00;82.90;;;;;;4971437;28;20039;-70
2021/04/05 01:25:58;;;;;;;5.72;2.55;;;6.00;82.90;;;;;;4971970;28;20031;-71
2021/04/05 01:28:24;;;;;;;3.83;2.00;;;6.10;82.80;;;;;;4967146;28;20398;-70
2021/04/05 01:30:53;;;;;;;9.43;2.70;;;6.00;82.70;;;;;;4971196;28;20097;-69
2021/04/05 01:33:18;;;;;;;4.68;2.88;;;6.00;83.10;;;;;;4970932;28;20054;-70
2021/04/05 01:35:48;;;;;;;7.72;2.70;;;6.00;83.00;;;;;;4970833;28;20090;-70
2021/04/05 01:38:16;;;;;;;7.55;2.47;;;6.00;82.90;;;;;;4970614;28;20041;-70
2021/04/05 01:40:47;;;;;;;6.25;2.70;;;5.80;83.10;;;;;;4971247;28;20098;-70
2021/04/05 01:43:13;;;;;;;4.80;2.35;;;5.80;83.60;;;;;;4970947;28;20038;-70
2021/04/05 01:45:40;;;;;;;5.10;2.40;;;5.80;83.70;;;;;;4970907;28;20437;-70
2021/04/05 01:48:07;;;;;;;4.55;2.05;;;5.80;84.10;;;;;;4970723;28;20062;-70
2021/04/05 01:50:33;;;;;;;5.20;2.35;;;5.80;84.20;;;;;;4971882;28;20029;-69
2021/04/05 01:53:04;;;;;;;6.70;2.00;;;5.80;84.20;;;;;;4971486;28;20117;-70
2021/04/05 01:55:31;;;;;;;6.38;2.70;;;5.70;84.60;;;;;;4971178;28;20035;-69
2021/04/05 01:57:57;;;;;;;5.68;2.47;;;5.60;84.90;;;;;;4970733;28;20521;-69
2021/04/05 02:00:27;;;;;;;5.40;2.15;;;5.50;85.50;;;;;;4970930;28;20039;-70
2021/04/05 02:02:58;;;;;;;6.38;2.58;;;5.40;85.60;;;;;;4971521;28;20492;-69
2021/04/05 02:05:27;;;;;;;6.47;2.58;;;5.50;85.70;;;;;;4971412;28;20070;-70
2021/04/05 02:07:53;;;;;;;5.05;2.65;;;5.40;86.60;;;;;;4970833;28;20023;-70
2021/04/05 02:10:24;;;;;;;6.50;2.15;;;5.40;86.40;;;;;;4971187;28;20082;-70
2021/04/05 02:12:51;;;;;;;4.38;2.15;;;5.40;86.70;;;;;;4971023;28;20223;-70
2021/04/05 02:15:18;;;;;;;4.20;2.28;;;5.50;86.30;;;;;;4970658;28;20427;-70
2021/04/05 02:17:47;;;;;;;7.05;2.50;;;5.40;86.60;;;;;;4971165;28;20121;-70
2021/04/05 02:20:15;;;;;;;5.30;2.38;;;5.30;87.00;;;;;;4971464;28;20489;-70
2021/04/05 02:22:46;;;;;;;4.43;1.88;;;5.40;87.00;;;;;;4970431;28;20125;-70
2021/04/05 02:25:18;;;;;;;4.55;2.60;;;5.30;86.60;;;;;;4969197;28;20039;-71
2021/04/05 02:27:49;;;;;;;3.65;1.88;;;5.30;87.30;;;;;;4970830;28;20130;-70
2021/04/05 02:30:24;;;;;;;7.43;3.05;;;5.40;87.30;;;;;;4970783;28;20053;-70
2021/04/05 02:32:54;;;;;;;4.97;2.58;;;5.40;87.00;;;;;;4969898;28;20035;-69
2021/04/05 02:35:25;;;;;;;4.35;1.88;;;5.40;87.00;;;;;;4969901;28;20529;-70
2021/04/05 02:37:52;;;;;;;8.00;2.78;;;5.10;87.80;;;;;;4970623;28;20723;-70
2021/04/05 02:40:19;;;;;;;5.20;1.75;;;5.10;88.50;;;;;;4970685;28;20045;-70
2021/04/05 02:42:46;;;;;;;5.22;2.40;;;4.90;89.00;;;;;;4970272;28;20119;-70
2021/04/05 02:45:18;;;;;;;6.13;2.60;;;4.90;89.00;;;;;;4971332;28;20039;-69
2021/04/05 02:47:46;;;;;;;4.55;2.10;;;4.90;89.20;;;;;;4970339;28;20035;-69
2021/04/05 02:50:12;;;;;;;5.22;2.28;;;5.00;88.90;;;;;;4970781;28;20481;-69
2021/04/05 02:52:39;;;;;;;3.97;2.00;;;5.10;88.70;;;;;;4970096;28;20150;-69
2021/04/05 02:55:09;;;;;;;3.22;1.83;;;5.20;88.70;;;;;;4970782;28;20037;-70
2021/04/05 02:57:37;;;;;;;6.57;2.00;;;5.10;88.90;;;;;;4970686;28;20081;-70
2021/04/05 03:00:14;;;;;;;7.50;1.92;;;5.40;88.50;;;;;;4970668;28;20034;-69
2021/04/05 03:02:46;;;;;;;3.80;1.85;;;5.50;88.30;;;;;;4961243;28;20027;-71
2021/04/05 03:05:15;;;;;;;5.47;1.98;;;5.70;87.90;;;;;;4963515;28;20031;-74
2021/04/05 03:07:43;;;;;;;6.43;2.22;;;5.80;87.70;;;;;;4962428;28;20034;-73
2021/04/05 03:10:10;;;;;;;4.32;2.35;;;5.60;87.50;;;;;;4963292;28;20058;-74
2021/04/05 03:12:39;;;;;;;4.30;2.20;;;5.40;88.50;;;;;;4965340;28;20512;-71
2021/04/05 03:15:07;;;;;;;4.60;2.42;;;5.30;89.00;;;;;;4966693;28;20027;-71
2021/04/05 03:17:34;;;;;;;4.40;1.67;;;5.20;89.50;;;;;;4966224;28;20033;-71
2021/04/05 03:20:02;;;;;;;4.72;2.50;;;5.00;90.10;;;;;;4966228;28;20433;-72
2021/04/05 03:22:28;;;;;;;3.63;2.10;;;5.10;90.20;;;;;;4966971;28;20030;-71
2021/04/05 03:24:54;;;;;;;5.32;1.90;;;5.10;90.10;;;;;;4967092;28;20470;-71
2021/04/05 03:27:19;;;;;;;4.97;2.10;;;5.00;90.30;;;;;;4966711;28;20038;-71
2021/04/05 03:29:46;;;;;;;4.30;2.38;;;5.00;90.40;;;;;;4967576;28;20039;-71
2021/04/05 03:32:17;;;;;;;4.90;2.10;;;5.00;90.40;;;;;;4965957;28;20038;-70
2021/04/05 03:34:54;;;;;;;7.07;2.20;;;4.90;90.50;;;;;;4965556;28;20054;-72
2021/04/05 03:37:22;;;;;;;4.70;2.47;;;4.90;90.70;;;;;;4965783;28;20046;-72
2021/04/05 03:39:49;;;;;;;5.30;2.67;;;4.90;90.80;;;;;;4965387;28;20031;-71
2021/04/05 03:42:22;;;;;;;4.60;2.00;;;4.90;90.90;;;;;;4966425;28;20035;-70
2021/04/05 03:44:55;;;;;;;5.35;2.65;;;4.90;91.00;;;;;;4966350;28;20627;-71
2021/04/05 03:47:42;;;;;;;4.55;1.90;;;4.90;91.10;;;;;;4966527;28;20062;-72
2021/04/05 03:50:18;;;;;;;3.60;2.08;;;4.90;91.20;;;;;;4966500;28;20031;-71
2021/04/05 03:53:12;;;;;;;3.88;1.77;;;4.90;91.00;;;;;;4966703;28;20019;-70
2021/04/05 03:55:39;;;;;;;4.78;2.20;;;4.70;91.20;;;;;;4964799;28;20031;-71
2021/04/05 03:58:09;;;;;;;3.33;1.80;;;4.80;91.30;;;;;;4965791;28;20035;-74
2021/04/05 04:00:35;;;;;;;6.45;1.80;;;4.80;91.20;;;;;;4960638;28;20041;-71
2021/04/05 04:03:06;;;;;;;7.80;2.70;;;4.80;91.30;;;;;;4966364;28;20112;-71
2021/04/05 04:05:42;;;;;;;3.30;2.03;;;4.80;91.30;;;;;;4965914;28;20035;-70
2021/04/05 04:08:33;;;;;;;3.53;1.83;;;4.70;91.40;;;;;;4963816;28;20145;-70
2021/04/05 04:11:05;;;;;;;6.28;2.83;;;4.80;91.40;;;;;;4963360;28;20026;-70
2021/04/05 04:13:35;;;;;;;6.35;2.28;;;4.70;91.50;;;;;;4966151;28;20638;-71
2021/04/05 04:16:02;;;;;;;5.15;2.13;;;4.50;91.80;;;;;;4965255;28;20548;-70
2021/04/05 04:18:30;;;;;;;6.03;2.28;;;4.40;92.20;;;;;;4965826;28;20501;-71
2021/04/05 04:20:58;;;;;;;4.50;2.10;;;4.40;92.20;;;;;;4963992;28;20077;-70
2021/04/05 04:23:24;;;;;;;5.63;2.15;;;4.40;92.30;;;;;;4957180;28;20062;-72
2021/04/05 04:25:52;;;;;;;3.90;2.15;;;4.40;92.60;;;;;;4966360;28;20061;-71
2021/04/05 04:28:18;;;;;;;4.82;2.08;;;4.30;92.70;;;;;;4965777;28;20091;-71
2021/04/05 04:30:44;;;;;;;6.15;2.30;;;4.40;92.50;;;;;;4965546;28;20145;-71
2021/04/05 04:33:11;;;;;;;5.10;2.22;;;4.30;92.50;;;;;;4965162;28;20089;-71
2021/04/05 04:35:39;;;;;;;4.97;3.30;;;4.30;92.40;;;;;;4980131;28;20478;-72
2021/04/05 04:38:06;;;;;;;7.10;2.28;;;4.20;92.90;;;;;;4965594;28;20077;-71
2021/04/05 04:40:35;;;;;;;4.55;2.03;;;4.30;92.70;;;;;;4964538;28;20051;-71
2021/04/05 04:43:06;;;;;;;8.20;2.58;;;4.50;92.40;;;;;;4962159;28;20067;-70
2021/04/05 04:45:33;;;;;;;4.28;2.40;;;4.50;92.40;;;;;;4965385;28;20031;-71
2021/04/05 04:47:59;;;;;;;5.43;2.55;;;4.50;92.50;;;;;;4965221;28;20026;-70
2021/04/05 04:50:26;;;;;;;6.28;2.33;;;4.40;92.70;;;;;;4965992;28;20034;-71
2021/04/05 04:52:53;;;;;;;7.68;2.25;;;4.50;92.50;;;;;;4957710;28;20050;-71
2021/04/05 04:55:20;;;;;;;5.95;2.60;;;4.40;92.60;;;;;;4963920;28;20429;-71
2021/04/05 04:57:46;;;;;;;3.88;2.03;;;4.50;92.50;;;;;;4965057;28;20056;-71
2021/04/05 05:00:13;;;;;;;5.78;2.40;;;4.50;92.40;;;;;;4965549;28;20031;-74
2021/04/05 05:02:41;;;;;;;5.18;2.88;;;4.40;92.60;;;;;;4964386;28;20031;-70
2021/04/05 05:05:09;;;;;;;8.13;2.35;;;4.40;92.60;;;;;;4964830;28;20347;-71
2021/04/05 05:07:36;;;;;;;7.60;2.90;;;4.40;92.40;;;;;;4964785;28;20106;-74
2021/04/05 05:10:04;;;;;;;5.57;2.90;;;4.50;92.50;;;;;;4964458;28;20134;-70
2021/04/05 05:12:30;;;;;;;4.82;2.35;;;4.40;92.40;;;;;;4965485;28;20039;-73
2021/04/05 05:14:56;;;;;;;5.10;2.78;;;4.40;92.50;;;;;;4963649;28;20110;-70
2021/04/05 05:17:22;;;;;;;6.55;2.08;;;4.40;92.50;;;;;;4964940;28;20114;-71
2021/04/05 05:19:49;;;;;;;4.30;2.20;;;4.40;92.50;;;;;;4965682;28;20038;-72
2021/04/05 05:22:16;;;;;;;7.47;2.35;;;4.40;92.60;;;;;;4964368;28;20070;-74
2021/04/05 05:24:44;;;;;;;6.75;2.53;;;4.30;93.00;;;;;;4964613;28;20030;-73
2021/04/05 05:27:11;;;;;;;4.35;2.03;;;4.30;92.70;;;;;;4964323;28;20758;-71
2021/04/05 05:29:38;;;;;;;8.52;2.95;;;4.40;92.40;;;;;;4965182;28;20038;-71
2021/04/05 05:32:05;;;;;;;4.82;2.28;;;4.50;92.40;;;;;;4963277;28;20033;-70
2021/04/05 05:34:31;;;;;;;6.60;2.72;;;4.50;92.40;;;;;;4965211;28;20090;-72
2021/04/05 05:36:57;;;;;;;5.47;2.72;;;4.60;92.40;;;;;;4963761;28;20042;-71
2021/04/05 05:39:23;;;;;;;7.95;3.08;;;4.60;92.40;;;;;;4964400;28;20019;-70
2021/04/05 05:42:07;;;;;;;7.20;2.78;;;4.60;92.50;;;;;;4964432;28;20042;-71
2021/04/05 05:44:42;;;;;;;6.82;2.58;;;4.60;92.40;;;;;;4965049;28;20150;-73
2021/04/05 05:47:23;;;;;;;;;;;4.60;92.50;;;;;;4964107;28;20039;-72
2021/04/05 05:49:53;;;;;;;7.05;3.05;;;4.70;92.40;;;;;;4964182;28;19914;-73
2021/04/05 05:52:45;;;;;;;5.65;2.45;;;4.60;92.50;;;;;;4963926;28;20054;-71
2021/04/05 05:55:32;;;;;;;5.75;2.88;;;4.70;92.30;;;;;;4964502;28;20077;-71
2021/04/05 05:58:39;;;;;;;6.22;2.78;;;4.60;92.70;;;;;;4963555;28;20106;-70
2021/04/05 06:01:26;;;;;;;6.47;3.33;;;4.50;92.60;;;;;;4939747;29;20039;-71
2021/04/05 06:04:19;;;;;;;5.38;2.42;;;4.60;92.40;;;;;;4962637;28;20170;-70
2021/04/05 06:07:04;;;;;;;6.45;3.10;;;4.80;92.20;;;;;;4935800;28;20056;-70
2021/04/05 06:09:45;;;;;;;5.80;2.42;;;4.90;92.20;;;;;;4960639;28;20062;-73
2021/04/05 06:12:17;;;;;;;4.35;1.88;;;4.80;92.40;;;;;;4963539;28;20593;-71
2021/04/05 06:15:10;;;;;;;4.47;2.10;;;4.90;92.50;;;;;;4963767;28;20093;-71
2021/04/05 06:18:14;;;;;;;4.03;2.08;;;5.00;92.20;;;;;;4962879;28;20049;-70
2021/04/05 06:20:48;;;;;;;6.50;2.33;;;5.10;92.30;;;;;;4953121;28;20505;-71
2021/04/05 06:23:23;;;;;;;6.47;2.33;;;5.30;92.30;;;;;;4963398;28;20795;-71
2021/04/05 06:26:12;;;;;;;4.03;1.50;;;5.40;92.40;;;;;;4963600;28;20043;-73
2021/04/05 06:29:02;;;;;;;6.35;2.28;;;5.40;92.00;;;;;;4963853;28;20027;-71
2021/04/05 06:31:51;;;;;;;2.33;1.40;;;5.40;91.90;;;;;;4957355;28;20034;-75
2021/04/05 06:34:35;;;;;;;5.85;2.13;;;5.50;91.90;;;;;;4962987;28;20446;-71
2021/04/05 06:37:25;;;;;;;4.80;2.20;;;5.60;92.40;;;;;;4966195;28;20473;-71
2021/04/05 06:39:58;;;;;;;5.97;2.28;;;5.70;91.60;;;;;;4973173;28;20043;-74
2021/04/05 06:42:42;;;;;;;4.40;1.92;;;5.80;92.70;;;;;;4961935;28;20035;-71
2021/04/05 06:45:46;;;;;;;5.53;1.90;;;5.80;92.60;;;;;;4962849;28;20050;-69
2021/04/05 06:48:30;;;;;;;5.85;1.85;;;5.80;91.80;;;;;;4976105;28;20286;-76
2021/04/05 06:51:10;;;;;;;5.32;2.22;;;6.00;91.70;;;;;;4978641;28;20027;-71
2021/04/05 06:53:57;;;;;;;5.95;2.60;;;6.00;91.60;;;;;;4968566;28;20061;-71
2021/04/05 06:56:24;;;;;;;5.00;2.35;;;6.30;91.20;;;;;;4970442;28;20097;-70
2021/04/05 06:59:20;;;;;;;6.30;2.30;;;8.60;86.30;;;;;;4977160;28;20022;-71
2021/04/05 07:01:58;;;;;;;6.40;2.63;;;10.50;77.10;;;;;;4976706;28;20067;-72
2021/04/05 07:04:58;;;;;;;10.65;2.58;;;11.60;73.20;;;;;;4961819;28;20086;-71
2021/04/05 07:07:47;;;;;;;12.52;3.03;;;12.40;70.60;;;;;;4946305;28;20047;-71
2021/04/05 07:10:27;;;;;;;9.93;3.13;;;12.70;68.70;;;;;;4968011;28;20166;-74
2021/04/05 07:13:06;;;;;;;4.80;2.35;;;12.90;68.20;;;;;;4974761;28;20505;-72
2021/04/05 07:15:50;;;;;;;5.28;2.03;;;13.20;67.30;;;;;;4961619;28;20045;-72
2021/04/05 07:18:53;;;;;;;9.13;2.38;;;14.10;65.40;;;;;;4973141;28;20097;-72
2021/04/05 07:21:42;;;;;;;4.57;2.40;;;14.50;63.20;;;;;;4968357;28;20035;-71
2021/04/05 07:24:17;;;;;;;6.40;2.65;;;13.40;65.70;;;;;;4968234;28;20035;-71
2021/04/05 07:26:49;;;;;;;5.95;2.38;;;10.40;71.60;;;;;;4975029;28;20038;-76
2021/04/05 07:29:40;;;;;;;6.47;2.55;;;8.80;78.20;;;;;;4970728;28;20039;-70
2021/04/05 07:32:09;;;;;;;5.53;2.55;;;7.90;83.00;;;;;;4968214;28;20034;-70
2021/04/05 07:34:38;;;;;;;6.63;2.67;;;7.50;86.00;;;;;;4968499;28;20062;-72
2021/04/05 07:37:04;;;;;;;6.03;2.45;;;7.50;86.70;;;;;;4969846;28;20046;-76
2021/04/05 07:39:29;;;;;;;6.63;2.70;;;7.50;86.70;;;;;;4967886;28;20085;-70
2021/04/05 07:42:21;;;;;;;5.55;2.40;;;7.40;86.60;;;;;;4964192;28;20110;-71
2021/04/05 07:44:55;;;;;;;6.72;2.42;;;7.30;87.10;;;;;;4969955;28;20424;-72
2021/04/05 07:47:36;;;;;;;6.47;2.78;;;7.40;87.80;;;;;;4974554;28;20031;-71
2021/04/05 07:50:27;;;;;;;7.10;2.95;;;7.40;88.00;;;;;;4974612;28;20038;-69
2021/04/05 07:53:31;;;;;;;6.93;2.70;;;7.50;87.60;;;;;;4954413;28;20042;-72
2021/04/05 07:56:01;;;;;;;7.57;2.70;;;7.40;87.20;;;;;;4908226;29;20059;-70
2021/04/05 07:59:01;;;;;;;8.27;2.55;;;7.50;87.00;;;;;;4907097;29;20041;-70
2021/04/05 08:01:35;;;;;;;5.70;2.40;;;7.60;86.10;;;;;;4953637;28;20121;-70
2021/04/05 08:04:38;;;;;;;5.85;2.58;;;7.50;84.80;;;;;;4967145;28;20033;-75
2021/04/05 08:07:30;;;;;;;6.10;2.92;;;7.60;84.70;;;;;;4967553;28;20385;-72
2021/04/05 08:10:30;;;;;;;8.93;2.80;;;7.70;85.40;;;;;;4972615;28;20038;-77
2021/04/05 08:13:10;;;;;;;5.15;2.47;;;7.80;85.00;;;;;;4965773;28;20023;-70
2021/04/05 08:15:47;;;;;;;4.80;2.45;;;7.80;85.30;;;;;;4961665;28;20035;-71
2021/04/05 08:18:44;;;;;;;3.85;2.15;;;8.00;85.70;;;;;;4967263;28;20113;-71
2021/04/05 08:21:18;;;;;;;7.70;2.47;;;8.20;83.10;;;;;;4965890;28;20031;-72
2021/04/05 08:24:09;;;;;;;28.35;3.10;;;8.30;81.50;;;;;;4967056;28;20039;-76
2021/04/05 08:26:47;;;;;;;6.03;2.35;;;8.30;79.70;;;;;;4970010;28;20026;-70
2021/04/05 08:29:34;;;;;;;7.05;2.90;;;8.30;79.60;;;;;;4971726;28;20030;-70
2021/04/05 08:32:34;;;;;;;5.57;1.70;;;8.30;79.40;;;;;;4976278;28;20058;-72
2021/04/05 08:35:27;;;;;;;5.60;2.20;;;8.30;77.40;;;;;;4979099;28;20027;-70
2021/04/05 08:38:24;;;;;;;8.45;2.45;;;8.40;76.60;;;;;;4966691;28;20158;-70
2021/04/05 08:41:39;;;;;;;8.88;2.35;;;8.40;76.40;;;;;;4967032;28;20237;-70
2021/04/05 08:44:33;;;;;;;9.18;2.25;;;8.40;75.60;;;;;;4951068;28;20047;-70
2021/04/05 08:47:01;;;;;;;5.15;2.28;;;8.50;76.60;;;;;;4955482;28;20248;-69
2021/04/05 08:49:29;;;;;;;4.22;2.20;;;8.60;75.10;;;;;;4953620;28;20038;-70
2021/04/05 08:52:02;;;;;;;7.07;2.67;;;8.70;75.00;;;;;;4961020;28;20113;-69
2021/04/05 08:54:29;;;;;;;5.18;2.17;;;8.70;74.60;;;;;;4953443;28;20039;-69
2021/04/05 08:57:02;;;;;;;8.70;3.15;;;8.70;74.60;;;;;;4952699;28;20745;-68
2021/04/05 08:59:37;;;;;;;7.60;2.60;;;9.00;76.20;;;;;;4952267;28;20827;-68
2021/04/05 09:02:06;;;;;;;9.93;2.00;;;11.70;71.90;;;;;;4951869;28;20350;-67
2021/04/05 09:04:34;;;;;;;5.70;2.17;;;13.60;65.00;;;;;;4957176;28;20058;-67
2021/04/05 09:07:11;;;;;;;5.13;2.35;;;14.40;63.00;;;;;;4956643;28;20034;-67
2021/04/05 09:09:39;;;;;;;9.02;2.05;;;14.60;61.40;;;;;;4952684;28;20525;-67
2021/04/05 09:12:07;;;;;;;5.97;2.22;;;15.00;61.40;;;;;;4950466;28;20030;-67
2021/04/05 09:14:50;;;;;;;3.67;1.73;;;14.30;60.40;;;;;;4957994;28;20210;-67
2021/04/05 09:17:39;;;;;;;4.60;1.60;;;15.00;59.90;;;;;;4952858;28;20167;-67
2021/04/05 09:20:27;;;;;;;3.95;1.90;;;14.80;61.30;;;;;;4946113;28;20115;-67
2021/04/05 09:23:19;;;;;;;4.93;2.08;;;15.30;59.90;;;;;;4957571;28;20037;-67
2021/04/05 09:26:03;;;;;;;4.97;1.80;;;15.60;59.00;;;;;;4940664;28;20052;-66
2021/04/05 09:29:05;;;;;;;6.90;2.47;;;15.70;60.10;;;;;;4951920;28;20070;-67
2021/04/05 09:31:52;;;;;;;6.07;2.13;;;15.80;60.00;;;;;;4958022;28;20034;-67
2021/04/05 09:34:35;;;;;;;4.28;1.80;;;15.60;60.00;;;;;;4952488;28;20034;-67
2021/04/05 09:37:04;;;;;;;4.25;2.10;;;15.30;60.40;;;;;;4956779;28;20043;-66
2021/04/05 09:39:36;;;;;;;9.95;2.42;;;14.60;61.00;;;;;;4951681;28;20035;-66
2021/04/05 09:42:35;;;;;;;7.15;2.47;;;15.00;60.80;;;;;;4958569;28;20030;-67
2021/04/05 09:45:14;;;;;;;5.50;2.30;;;13.90;62.90;;;;;;4953541;28;20659;-67
2021/04/05 09:47:59;;;;;;;6.45;2.28;;;13.40;63.10;;;;;;4952848;28;20086;-67
2021/04/05 09:50:47;;;;;;;6.32;2.97;;;12.60;63.70;;;;;;4958348;28;20022;-66
2021/04/05 09:53:31;;;;;;;4.03;2.30;;;11.90;64.10;;;;;;4958279;28;20041;-66
2021/04/05 09:56:04;;;;;;;5.00;2.22;;;12.00;65.60;;;;;;4952735;28;20234;-67
2021/04/05 09:58:37;;;;;;;5.38;3.22;;;11.90;64.70;;;;;;4953596;28;20047;-67
2021/04/05 10:01:26;;;;;;;4.40;2.30;;;12.00;65.40;;;;;;4953519;28;20030;-67
2021/04/05 10:03:56;;;;;;;4.82;2.22;;;11.70;65.40;;;;;;4951988;28;20118;-66
2021/04/05 10:06:26;;;;;;;3.92;2.20;;;12.10;66.80;;;;;;4954936;28;20054;-66
2021/04/05 10:08:57;;;;;;;4.00;2.10;;;12.00;65.40;;;;;;4954804;28;20054;-66
2021/04/05 10:11:27;;;;;;;4.32;2.13;;;12.10;65.60;;;;;;4970235;28;20026;-66
2021/04/05 10:13:57;;;;;;;7.18;2.25;;;12.10;66.40;;;;;;4965567;28;20034;-66
2021/04/05 10:16:24;;;;;;;7.85;2.72;;;12.50;67.30;;;;;;4974085;28;20033;-65
2021/04/05 10:19:11;;;;;;;116.97;10.73;;;12.90;66.20;;;;;;4968402;28;20018;-66
2021/04/05 10:22:01;;;;;;;4.68;2.42;;;13.00;65.30;;;;;;4953872;28;20045;-66
2021/04/05 10:24:29;;;;;;;4.28;2.10;;;13.30;64.40;;;;;;4959286;28;20047;-66
2021/04/05 10:26:57;;;;;;;5.60;2.50;;;13.30;63.10;;;;;;4965688;28;20128;-66
2021/04/05 10:29:31;;;;;;;6.28;2.08;;;13.10;64.00;;;;;;4961776;28;20034;-65
2021/04/05 10:32:05;;;;;;;6.18;2.10;;;13.40;65.20;;;;;;4951169;28;21544;-67
2021/04/05 10:34:33;;;;;;;;;;;13.80;63.40;;;;;;4954698;28;20077;-68
2021/04/05 10:37:07;;;;;;;4.00;1.98;;;13.70;62.60;;;;;;4977013;28;20418;-66
2021/04/05 10:39:34;;;;;;;6.37;1.90;;;13.90;63.80;;;;;;4952724;28;21435;-66
2021/04/05 10:42:13;;;;;;;4.97;1.98;;;13.80;63.20;;;;;;4958454;28;20037;-67
2021/04/05 10:44:45;;;;;;;4.38;2.33;;;13.80;62.30;;;;;;4956150;28;20596;-67
2021/04/05 10:47:18;;;;;;;5.15;1.95;;;13.90;62.60;;;;;;4952538;28;20083;-67
2021/04/05 10:49:47;;;;;;;5.00;1.83;;;14.20;63.10;;;;;;4955944;28;20027;-67
2021/04/05 10:52:21;;;;;;;5.22;2.40;;;14.70;61.50;;;;;;4961956;28;20517;-67
2021/04/05 10:54:50;;;;;;;5.65;1.98;;;14.90;61.20;;;;;;4953396;28;20530;-66
2021/04/05 10:57:29;;;;;;;5.53;1.70;;;14.70;60.10;;;;;;4952673;28;21017;-66
2021/04/05 10:59:57;;;;;;;3.67;1.60;;;14.80;61.20;;;;;;4954407;28;20041;-67
2021/04/05 11:02:29;;;;;;;6.30;1.80;;;14.80;61.40;;;;;;4953771;28;20027;-66
2021/04/05 11:05:02;;;;;;;6.32;2.17;;;14.70;60.20;;;;;;4951933;28;20031;-67
2021/04/05 11:07:30;;;;;;;5.45;2.58;;;14.90;62.00;;;;;;4953045;28;20046;-66
2021/04/05 11:10:00;;;;;;;7.13;2.35;;;14.80;61.50;;;;;;4950416;28;20039;-67
2021/04/05 11:12:37;;;;;;;6.43;2.30;;;14.80;61.30;;;;;;4957403;28;20035;-66
2021/04/05 11:15:08;;;;;;;6.35;2.28;;;15.10;61.70;;;;;;4953870;28;20026;-66
2021/04/05 11:17:40;;;;;;;3.55;1.63;;;15.30;61.00;;;;;;4957420;28;20122;-67
2021/04/05 11:20:08;;;;;;;7.57;2.30;;;15.60;60.80;;;;;;4952219;28;20035;-67
2021/04/05 11:22:36;;;;;;;5.63;1.95;;;15.50;60.10;;;;;;4954757;28;20181;-66
2021/04/05 11:25:10;;;;;;;5.55;1.77;;;15.80;60.60;;;;;;4956311;28;20081;-68
2021/04/05 11:27:42;;;;;;;2.53;1.38;;;15.70;59.00;;;;;;4952719;28;20927;-67
2021/04/05 11:30:09;;;;;;;3.42;1.48;;;15.60;58.20;;;;;;4981676;28;20031;-66
2021/04/05 11:32:38;;;;;;;4.07;1.50;;;15.60;60.40;;;;;;4958371;28;20503;-67
2021/04/05 11:35:07;;;;;;;7.20;1.65;;;15.50;59.30;;;;;;4960129;28;20027;-67
2021/04/05 11:37:38;;;;;;;5.45;2.50;;;15.50;58.90;;;;;;4955510;28;20053;-67
2021/04/05 11:40:12;;;;;;;4.10;1.80;;;15.40;58.00;;;;;;4958607;28;20018;-67
2021/04/05 11:42:46;;;;;;;4.30;1.75;;;15.40;58.20;;;;;;4955460;28;20156;-67
2021/04/05 11:45:27;;;;;;;5.63;2.13;;;15.60;58.30;;;;;;4959839;28;20030;-66
2021/04/05 11:47:55;;;;;;;4.72;2.03;;;15.80;59.00;;;;;;4985072;28;20034;-66
2021/04/05 11:50:25;;;;;;;3.38;1.55;;;15.50;58.00;;;;;;4987704;28;20027;-66
2021/04/05 11:53:01;;;;;;;3.15;1.58;;;15.40;57.80;;;;;;4955976;28;20048;-66
2021/04/05 11:55:31;;;;;;;3.38;1.48;;;15.60;58.70;;;;;;4960263;28;20050;-66
2021/04/05 11:58:13;;;;;;;5.75;1.98;;;15.70;57.20;;;;;;4955241;28;20034;-67
2021/04/05 12:00:43;;;;;;;4.63;1.63;;;15.80;58.00;;;;;;4955610;28;20053;-67
2021/04/05 12:03:20;;;;;;;6.70;1.65;;;15.90;57.80;;;;;;4959593;28;20413;-67
2021/04/05 12:06:06;;;;;;;10.82;2.08;;;15.80;57.40;;;;;;4961264;28;20525;-67
2021/04/05 12:08:44;;;;;;;3.33;1.50;;;16.00;56.70;;;;;;4955828;28;20062;-67
2021/04/05 12:11:12;;;;;;;5.38;1.55;;;16.30;57.20;;;;;;4954766;28;20034;-67
2021/04/05 12:13:43;;;;;;;12.45;2.00;;;16.10;57.10;;;;;;4956492;28;20034;-67
2021/04/05 12:16:10;;;;;;;3.85;1.40;;;16.00;56.60;;;;;;4961252;28;20042;-66
2021/04/05 12:18:36;;;;;;;11.30;1.70;;;15.90;56.20;;;;;;4960907;28;20022;-66
2021/04/05 12:21:09;;;;;;;3.80;1.88;;;15.90;57.50;;;;;;4967419;28;20027;-66
2021/04/05 12:23:36;;;;;;;6.18;1.38;;;15.90;56.00;;;;;;4967492;28;20097;-66
2021/04/05 12:26:03;;;;;;;5.53;1.75;;;15.90;56.90;;;;;;4968604;28;20043;-67
2021/04/05 12:28:37;;;;;;;3.70;1.42;;;16.00;56.50;;;;;;4961341;28;20029;-67
2021/04/05 12:31:05;;;;;;;3.95;1.50;;;15.90;55.80;;;;;;4956308;28;20046;-67
2021/04/05 12:33:35;;;;;;;5.47;1.27;;;15.80;56.40;;;;;;4953927;28;20033;-67
2021/04/05 12:36:03;;;;;;;6.75;1.27;;;15.70;55.00;;;;;;4954121;28;20038;-66
2021/04/05 12:38:38;;;;;;;4.43;1.50;;;15.70;57.00;;;;;;4962961;28;20027;-66
2021/04/05 12:41:07;;;;;;;8.02;1.42;;;15.60;56.00;;;;;;4954719;28;20035;-66
2021/04/05 12:43:36;;;;;;;4.22;2.13;;;15.70;57.00;;;;;;4955376;28;20023;-67
2021/04/05 12:46:08;;;;;;;6.25;1.90;;;16.20;57.00;;;;;;4985640;28;20033;-66
2021/04/05 12:48:37;;;;;;;45.28;4.78;;;16.20;55.20;;;;;;4967032;28;20061;-67
2021/04/05 12:51:05;;;;;;;7.50;1.33;;;16.30;56.90;;;;;;4954378;28;21398;-67
2021/04/05 12:53:34;;;;;;;3.28;1.50;;;16.30;54.60;;;;;;4953263;28;20050;-67
2021/04/05 12:56:01;;;;;;;9.95;1.77;;;16.40;55.70;;;;;;4954667;28;20081;-67
2021/04/05 12:58:29;;;;;;;6.00;1.48;;;16.60;55.00;;;;;;4959473;28;20034;-67
2021/04/05 13:00:55;;;;;;;6.45;1.42;;;16.10;54.90;;;;;;4958233;28;20113;-67
2021/04/05 13:03:32;;;;;;;2.80;1.25;;;16.30;55.00;;;;;;4956797;28;20058;-67
2021/04/05 13:06:06;;;;;;;8.80;2.20;;;16.50;54.10;;;;;;4958136;28;20045;-67
2021/04/05 13:08:53;;;;;;;4.32;1.23;;;16.60;55.00;;;;;;4965824;28;20059;-67
2021/04/05 13:11:24;;;;;;;4.40;1.65;;;16.50;53.40;;;;;;4954518;28;20370;-67
2021/04/05 13:14:02;;;;;;;2.83;1.15;;;16.60;53.80;;;;;;4954618;28;20018;-67
2021/04/05 13:16:28;;;;;;;2.58;1.23;;;16.80;54.10;;;;;;4969834;28;20042;-66
2021/04/05 13:18:57;;;;;;;5.50;1.75;;;16.70;53.50;;;;;;4979222;28;20034;-66
2021/04/05 13:21:25;;;;;;;3.83;1.70;;;16.20;53.30;;;;;;4973855;28;20085;-66
2021/04/05 13:23:55;;;;;;;4.25;1.52;;;16.20;54.50;;;;;;4985857;28;20034;-66
2021/04/05 13:26:30;;;;;;;6.03;1.52;;;16.20;54.70;;;;;;4982319;28;20022;-66